events-overview

Rumpus in Bumpass Sprint

 

Overall Men

Lake Anna Beach Marina - Bumpass, VA 4/17/2011 10:00AM

** Results are for the private use of participants and are the Intellectual Property of Set Up Events. Unauthorized use of these results is prohibited.

Place Bib Ag NAME CITY/STATE Rank SWIM Rank T1 Rank BIKE Rank T2 Rank RUN PENALTY TIME DQ
133231Lucas McCollumFrederick MD1600:12:23900:01:11100:30:121200:01:06500:18:02 01:02:52 
253834Robert GreenMidlothian VA1400:12:18300:01:03200:30:50300:00:58800:18:41 01:03:47 
321136Justin RiddleKing George VA600:11:333000:01:25300:31:312400:01:102100:19:22 01:04:58 
458123Justin FerrellGlen Allen VA500:11:10800:01:11700:32:201800:01:081900:19:18 01:05:05 
529339Tim MorrisRichmond VA2300:12:49700:01:10600:32:132900:01:12300:17:48 01:05:11 
648428Jonatas HilleRichmond VA1100:12:037500:01:43800:32:241400:01:071100:18:53 01:06:08 
762436Brady DehoustOak Hill VA3900:13:306700:01:40900:32:313500:01:15600:18:18 01:07:11 
829417Dylan MorganFairfax Station VA1000:12:02400:01:055700:35:32900:01:04200:17:46 01:07:26 
965135Mike CookRichmond VA4500:13:375400:01:35400:31:531300:01:062000:19:18 01:07:27 
1079935Bradley WedemeyerReston VA4000:13:314800:01:312800:34:14200:00:56700:18:27 01:08:37 
1180132Scott BaileyReston VA10300:15:01200:00:552300:34:00500:01:00100:17:45 01:08:39 
122142Doug WoodsGaithersburg MD9900:14:565300:01:34500:31:588800:01:281300:18:59 01:08:54 
1349244Marion HerringRichmond VA800:11:542500:01:244100:35:013900:01:162300:19:37 01:09:09 
1430934Chris MillerFrederick MD5200:13:455700:01:361100:32:508000:01:262600:19:41 01:09:17 
1541818Dane KingDeWitt VA8700:14:381300:01:121000:32:451600:01:072800:19:41 01:09:22 
1612139Michael StevensonArlington VA700:11:354100:01:305100:35:231500:01:073500:20:06 01:09:38 
1715716Elijah ShawMidlothian VA1300:12:141000:01:115000:35:211100:01:053200:19:58 01:09:47 
1845529Kory JessenReston VA6900:14:103800:01:282700:34:147700:01:261400:19:02 01:10:18 
195430Dustin WaltersCharlottesville VA1500:12:221900:01:193700:34:436500:01:233900:20:32 01:10:18 
2069344Kent BucksonRehoboth Beach DE2400:12:514400:01:301600:33:2117600:01:505100:20:54 01:10:24 
2172223Max BernardesKing George VA100:10:182900:01:248000:36:213600:01:155600:21:14 01:10:31 
2210235Damon TaaffeArlington VA7200:14:1516800:02:221400:33:072800:01:122500:19:41 01:10:34 
2369018James BuschRichmond VA3400:13:227200:01:425200:35:263400:01:141500:19:05 01:10:47 
2464242Doug CowellPittsboro NC7400:14:186800:01:401700:33:3012700:01:403000:19:54 01:11:01 
2529234Alan MossKing George VA1900:12:3315500:02:181200:33:0011700:01:376800:21:35 01:11:01 
2654429Sean GordonArlington VA7700:14:247100:01:421300:33:0220500:01:583300:20:03 01:11:07 
2777139Ryan AlbrechtReston VA5600:13:536900:01:401800:33:306700:01:245700:21:17 01:11:42 
2850145Wes HayesSuffolk VA6200:14:003900:01:282500:34:101000:01:055500:21:08 01:11:49 
2933916Daniel McAllisterLeesburg VA200:11:011200:01:127300:36:02100:00:5511600:22:43 01:11:52 
3057622Frederick FischlFlemington NJ4300:13:342400:01:233500:34:3411400:01:365000:20:54 01:11:59 
PlaceBibAgNAMECITY/STATERankSWIMRankT1RankBIKERankT2RankRUNPENALTYTIMEDQ
3159125Nathan FabianWashington DC7000:14:11100:00:548600:36:413000:01:122400:19:37 01:12:33 
3211027Brian SullivanWashington DC4600:13:406000:01:384000:34:597600:01:264900:20:53 01:12:33 
3311537David StubbsCulpeper VA11100:15:1416000:02:201500:33:085900:01:224500:20:48 01:12:51 
3439946Michael KrongaardRichmond VA12800:15:407300:01:431900:33:3810700:01:334100:20:36 01:13:09 
3537317Armistead LeggeWinchester VA13800:15:529400:01:505300:35:286200:01:231000:18:46 01:13:17 
369136Jason TaylorWashington DC18900:16:473600:01:273800:34:464300:01:171600:19:05 01:13:19 
379938Brian TaddikenArlington VA13300:15:457700:01:442100:33:512100:01:095300:20:57 01:13:24 
389031Marco TerenghiGlen Allen VA12200:15:274000:01:293400:34:335300:01:204800:20:51 01:13:37 
3958719Johnathan FaviniEast Stroudsburg PA300:11:067000:01:4112800:37:5525500:02:115200:20:56 01:13:48 
401717Clay WordMidlothian VA8300:14:31600:01:1013800:38:151900:01:081200:18:56 01:13:58 
4161652Alan DixonWashington DC11200:15:154500:01:302000:33:434600:01:189700:22:19 01:14:03 
4256820Peter FredricksonVirginia Beach VA2200:12:449200:01:507100:35:564200:01:1610300:22:26 01:14:10 
4345852Kip JawishFrederick MD8200:14:302200:01:222600:34:103200:01:1313400:23:02 01:14:15 
4425338Thomas PearsallRichmond VA4700:13:406600:01:406500:35:449300:01:297600:21:49 01:14:20 
4534147Wayne McAllisterLeesburg VA5700:13:541400:01:135500:35:3113200:01:419000:22:10 01:14:26 
4650232Michael HawmanRockville MD12000:15:256500:01:395800:35:332600:01:114200:20:41 01:14:26 
4728036Shaun NicholsChester VA2600:12:5413000:02:043900:34:4814300:01:4313800:23:08 01:14:34 
4853229Benjamin GreenWashington DC8100:14:2911300:01:594600:35:106100:01:237500:21:49 01:14:48 
4962743Bill DeatonRuckersville VA15400:16:098400:01:462200:33:528600:01:278300:22:00 01:15:12 
503730Rob WhittlesLaurel MD2500:12:5213800:02:0817600:39:338900:01:281800:19:16 01:15:15 
5137832Scott LearyWashington DC9600:14:5310600:01:564300:35:0512600:01:407400:21:49 01:15:21 
5263636David CrumFairfax VA5500:13:523700:01:278100:36:264700:01:1810100:22:25 01:15:26 
5353639Kevin GreenGaithersburg MD11500:15:209500:01:513100:34:248400:01:2710200:22:26 01:15:26 
5460739Chad DuffLynchburg VA3000:13:119600:01:514800:35:1319400:01:5414900:23:24 01:15:32 
5536427Matthew LongleyWashington DC26200:18:2811400:01:593000:34:2017400:01:491700:19:05 01:15:39 
5619931Douglas RogersRockville MD5000:13:441100:01:126000:35:376000:01:227900:21:5200:02:0001:15:45 
5762027Brandon DeweyVirginia Beach VA400:11:1015200:02:1715700:38:4710200:01:308700:22:05 01:15:48 
5856044Baucum FulkLittle Rock AR6300:14:029000:01:497700:36:117200:01:2510500:22:28 01:15:53 
5972821Zach BenderHatboro PA13200:15:449300:01:503200:34:247100:01:2510800:22:31 01:15:53 
6036126Bryce LowreyCharlottesville VA16400:16:194200:01:306300:35:4023000:02:033700:20:24 01:15:55 
6180324Larry HutchinsonTemple Hills MD25100:18:0611500:02:008300:36:315000:01:19400:18:00 01:15:55 
PlaceBibAgNAMECITY/STATERankSWIMRankT1RankBIKERankT2RankRUNPENALTYTIMEDQ
6251835William HancockWashington DC10900:15:105000:01:334400:35:099800:01:3011100:22:37 01:15:57 
638442Terry ThorntonGlen Allen VA14700:16:012100:01:226700:35:534400:01:176400:21:30 01:16:02 
6473536Jay BassBlacksburg VA10500:15:054700:01:315400:35:3017100:01:499400:22:12 01:16:05 
6511657Thomas StroupGreat Falls VA12100:15:263200:01:254900:35:165600:01:2211200:22:38 01:16:06 
6646136Corey JacobsArlington VA11700:15:2212600:02:037400:36:035500:01:216300:21:26 01:16:13 
6766548E Kevin ClarkFrederick MD15700:16:1210100:01:555900:35:343300:01:146000:21:21 01:16:13 
6849738Mike HeffernanShady Side MD11900:15:246400:01:393600:34:399500:01:2914300:23:17 01:16:26 
6924942Rick PerraultKeswick VA17100:16:263100:01:256600:35:455700:01:226600:21:32 01:16:28 
7068337David Callaway JrStafford VA6700:14:078200:01:468800:36:4810600:01:339800:22:19 01:16:31 
7143938Vedat KaplanFrederick MD7600:14:231500:01:156200:35:402000:01:0816800:24:08 01:16:33 
7250931Luke HartigWashington DC19900:16:533400:01:269500:36:569200:01:292900:19:52 01:16:34 
7316249Ray SeligCharlottesville VA7100:14:129700:01:524700:35:1215800:01:4715500:23:39 01:16:40 
7411249Dolan SullivanAlexandria VA4200:13:3217100:02:2410300:37:1312900:01:403100:19:5700:02:0001:16:46 
7515452Lee SherbakoffArlington VA11400:15:1713600:02:0711000:37:2210300:01:313800:20:32 01:16:47 
7649031Joey HessFredericksburg VA1200:12:1113500:02:0525800:42:1611600:01:37900:18:44 01:16:51 
7764828Christopher CopleyChesapeake VA3100:13:124900:01:316400:35:438100:01:2720000:25:08 01:17:00 
7829535Juan MorenoArlington VA14300:15:5711000:01:584500:35:1030600:02:276700:21:33 01:17:02 
7927930Alex NickodemAtlantic Beach FL6100:13:593300:01:2613600:38:105100:01:199100:22:11 01:17:04 
8076537Jason AndersonGloucester VA           01:17:04 
8125820Ryan O'SullivanBasking Ridge NJ3600:13:242700:01:2421600:40:4711200:01:353400:20:04 01:17:13 
8211425Craig SturgeonSeverna Park MD9400:14:518600:01:488700:36:4631900:02:366100:21:23 01:17:21 
8369845James BrownGermantown MD3500:13:2221900:02:4710900:37:2219900:01:558600:22:05 01:17:29 
8444027Patrick JurgensAlexandria VA14000:15:5312200:02:0010400:37:1823500:02:043600:20:18 01:17:32 
8569125Michael BuonocoreArlington VA8900:14:391600:01:1612300:37:502700:01:1212100:22:48 01:17:42 
8639841David KumashiroArlington VA12300:15:2817600:02:2912500:37:5016300:01:484000:20:34 01:18:07 
872551Mark WolffMcLean VA15000:16:0613200:02:057800:36:1213100:01:418900:22:10 01:18:11 
8831052Dave MillerMiddletown MD13900:15:5215000:02:1510600:37:197800:01:266200:21:24 01:18:14 
896340David VielbigAshburn VA14100:15:5414700:02:142400:34:0618200:01:5117100:24:12 01:18:15 
9075141Luis BagaArlington VA15100:16:0610000:01:548400:36:386600:01:2410000:22:22 01:18:22 
9154731Brett GombarBlacksburg VA2100:12:4329100:03:3010800:37:219100:01:2915300:23:32 01:18:33 
9277336Michael AdamsDayton VA13000:15:427400:01:438900:36:489600:01:3013000:22:58 01:18:38 
PlaceBibAgNAMECITY/STATERankSWIMRankT1RankBIKERankT2RankRUNPENALTYTIMEDQ
934839Jeff WebbArlington VA8800:14:3814800:02:149400:36:5610900:01:3514700:23:22 01:18:42 
9465756Rob ColburnAshburn VA9100:14:459800:01:5310200:37:098200:01:2715400:23:33 01:18:45 
9532940Trey McFerrenRichmond VA18500:16:4216900:02:2211200:37:3018700:01:524300:20:41 01:19:06 
9613156Paul SpencerRemington VA6800:14:0810300:01:559300:36:5424200:02:0716600:24:05 01:19:07 
973546Joe WilczynskiChevy Chase MD25900:18:178100:01:455600:35:3112800:01:408500:22:01 01:19:13 
9846442Thomas ImpellitteriAlexandria VA21400:17:0610900:01:586800:35:547500:01:2612900:22:57 01:19:18 
9961220Taylor DowellRichmond VA9200:14:479100:01:5024800:41:4712200:01:392200:19:32 01:19:33 
10040035Jason KraljRockville MD11800:15:2311700:02:008500:36:3913400:01:4116400:24:02 01:19:43 
1017129Bering TsangWashington Dc DC9700:14:5313100:02:0416800:39:2110000:01:308200:21:59 01:19:46 
10270231Martin BremholmNew York NY21000:17:0423600:03:0012400:37:501700:01:074700:20:49 01:19:48 
10324235Justin PierceWoodbridge VA21700:17:072300:01:2213400:38:078500:01:277700:21:51 01:19:52 
10467129Stephen ChestnutBoulder CO17400:16:2829400:03:327900:36:1930400:02:266500:21:30 01:20:13 
10527249Sean OatmeyerWilliamsburg VA29700:19:4915300:02:172900:34:1625300:02:107100:21:42 01:20:14 
10617238George SchlossnagleWoodbine MD16800:16:2414100:02:107200:36:0110500:01:3317500:24:23 01:20:28 
10727149Jose ObandoOak Hill VA16100:16:175900:01:3816500:39:137400:01:258400:22:00 01:20:31 
10870559Steve BradleyPurcellville VA19200:16:483500:01:2610500:37:1912300:01:3914800:23:23 01:20:34 
10914428Vincent SmithArlington VA18400:16:426300:01:3911700:37:4016000:01:4712000:22:47 01:20:34 
11025626Michael OwensWashington DC11600:15:218000:01:4521900:40:5113600:01:415400:21:04 01:20:40 
11117052Bret SchmidtFredericksburg VA12500:15:3018300:02:3312900:38:0022000:02:0111500:22:43 01:20:46 
11231841Benjamin MeredithLinville VA21200:17:0518400:02:3312700:37:539700:01:307300:21:48 01:20:47 
11371324Chris BoscoVienna VA1800:12:3316200:02:2020100:40:1534100:02:4712800:22:54 01:20:47 
11426853Kevin O'ConnorMechanicsville VA18700:16:4533000:03:5911800:37:4322800:02:034400:20:48 01:21:16 
11558041Michael FeykoBaltimore MD17500:16:295500:01:358200:36:3022200:02:0218800:24:45 01:21:19 
11665029Brian CookWashington DC12700:15:3921400:02:4515400:38:4327600:02:188100:21:58 01:21:21 
11746546Eric IacobucciAlexandria VA10400:15:0225800:03:0614500:38:2925000:02:0911000:22:37 01:21:21 
11866133David CliftonArlington VA11300:15:1616500:02:2114100:38:2011100:01:3516200:23:57 01:21:28 
11955015Adam GlymphChesterfield VA4100:13:3210500:01:5614900:38:364000:01:1625100:26:12 01:21:30 
12064540Timothy CornellBurlington VT16600:16:225600:01:3610000:37:0826600:02:1417200:24:13 01:21:30 
12175450Alan ArrudaWilliamsburg VA25500:18:1112800:02:044200:35:0413000:01:4018400:24:38 01:21:36 
12255830Lyle GanzSilver Spring MD17300:16:2835800:04:197000:35:5523900:02:0612600:22:50 01:21:36 
12373954Mark BareRichmond VA        11900:22:47 01:21:37Y
PlaceBibAgNAMECITY/STATERankSWIMRankT1RankBIKERankT2RankRUNPENALTYTIMEDQ
12419834Matthew RohringFalls Church VA11000:15:1320900:02:4210700:37:2121400:02:0017800:24:31 01:21:44 
12557445Joseph FlemingWaynesboro VA17600:16:3113300:02:053300:34:3015300:01:4527400:27:00 01:21:49 
12622933Keith PrusekRichmond VA14800:16:0316400:02:209000:36:5224800:02:0917700:24:30 01:21:52 
12777631Matt AccorneroWashington DC29400:19:431700:01:1711500:37:337900:01:268000:21:56 01:21:52 
12860137Ted EastwickWashington DC13700:15:512000:01:219600:36:5812100:01:3825500:26:16 01:22:03 
12942253Michael KiehlMidlothian VA19100:16:478800:01:499100:36:545400:01:2020500:25:15 01:22:04 
13016639Matthew SchwabelBarboursville VA27600:18:5220300:02:3911100:37:2311800:01:376900:21:35 01:22:04 
13174416Kevin BaldwinReston VA22700:17:255200:01:3416100:39:029900:01:3010900:22:36 01:22:05 
13229635Paul MoosmanRockbridge Baths VA24300:17:51500:01:1016000:38:576800:01:2412200:22:48 01:22:08 
133235Jake ZierWest Chester PA17700:16:3217300:02:2718900:39:56400:00:599900:22:20 01:22:12 
134330Rami ZhemanAlexandria VA23000:17:3015900:02:1911300:37:3119600:01:5413600:23:03 01:22:15 
135446David ZemoCulpeper VA16900:16:258900:01:499800:37:065800:01:2222800:25:39 01:22:19 
13622720Hank PurvisLexington VA900:11:551800:01:1829600:43:482500:01:1016900:24:10 01:22:19 
13768825Jim ByrdGaithersburg MD16300:16:196200:01:3915000:38:3719200:01:5316100:23:55 01:22:21 
138122John ZookHarrisonburg VA12900:15:4121000:02:4317800:39:3522700:02:0310400:22:28 01:22:28 
13969526Michael BrunoMelrose MA19300:16:4811200:01:5915500:38:4626400:02:1313500:23:02 01:22:45 
14057339Adrian FloresAshburn VA18100:16:3814300:02:1116400:39:1013900:01:4213900:23:13 01:22:51 
14123927Tim PoteStafford VA8500:14:3413900:02:0916700:39:1527400:02:1718500:24:40 01:22:53 
14252240Jeff HalperDerwood MD21500:17:0719600:02:379900:37:0822300:02:0216500:24:04 01:22:56 
14320542James RoachChesterfield VA29800:19:525800:01:377500:36:0818900:01:5315900:23:47 01:23:16 
14418530Samuel SalinasArlington VA17900:16:356100:01:3812600:37:5220600:01:5814400:23:1900:02:0001:23:21 
14541543Mike KirschNewport News VA14600:16:015100:01:3412200:37:4919800:01:5424600:26:06 01:23:23 
1465121Troy WarcewiczLexington VA21800:17:072800:01:2421800:40:4920300:01:589200:22:11 01:23:28 
14756634Scott FrenchFairfax VA10000:14:5718200:02:3323400:41:2132200:02:3710600:22:28 01:23:55 
14840429Craig KotarskiCharlottesville VA20000:16:5625700:03:0614600:38:3117500:01:5015700:23:46 01:24:06 
14927446David NystromVienna VA14400:15:5821600:02:4614700:38:3214000:01:4220300:25:14 01:24:11 
15073335Clay BattinAlexandria VA28000:18:5615800:02:197600:36:1016100:01:4819900:25:07 01:24:19 
15142425Patrick KiblerStanardsville VA3200:13:1328900:03:2920700:40:2019500:01:5421500:25:27 01:24:20 
15266357John ClarkeHenrico VA12600:15:3119800:02:3813000:38:0115400:01:4525700:26:28 01:24:21 
15376827John AllenMillersville MD9300:14:4824800:03:0011600:37:4028600:02:2226300:26:38 01:24:26 
1544049Lee WhiteRichmond VA15500:16:1016300:02:2014200:38:2618500:01:5223500:25:49 01:24:35 
PlaceBibAgNAMECITY/STATERankSWIMRankT1RankBIKERankT2RankRUNPENALTYTIMEDQ
15572034Tim BerryBeckley WV12400:15:2923100:02:5415800:38:5122500:02:0221100:25:23 01:24:37 
15638631Brock LanierWashington DC7800:14:2517500:02:2819300:40:0213300:01:4124300:26:04 01:24:38 
15714028Brian SmithLeesburg VA21300:17:0521300:02:4420500:40:1914700:01:4412300:22:50 01:24:40 
15832032Matthew MeldrumArlington VA28500:19:1027400:03:2120400:40:172200:01:094600:20:49 01:24:44 
15959447Mark EsperFairfax Station VA24900:18:0436100:04:2515600:38:4619100:01:537000:21:40 01:24:46 
16042644Alex KessingerCovington VA29300:19:4113700:02:0713700:38:1316600:01:4813200:23:00 01:24:48 
16138827Adam LaneWilliamsburg VA3700:13:2619000:02:3522200:40:5724500:02:0823200:25:45 01:24:50 
16245134Eric JohnsonColumbia MD22100:17:1230100:03:3820000:40:1321600:02:007800:21:51 01:24:54 
16333532Chris McCallReston VA23600:17:4020100:02:3819700:40:0916500:01:4811300:22:41 01:24:54 
16432627Alex McIntoshBaltimore MD22900:17:3017400:02:2711900:37:4415100:01:4523100:25:42 01:25:06 
16519725Max RomanoBaltimore MD27000:18:4520500:02:3923300:41:183100:01:125800:21:17 01:25:11 
16630734William MillsSalem VA24700:18:0024900:03:0113300:38:0321100:01:5917000:24:10 01:25:11 
1673937Chad WhiteAlexandria VA4800:13:4226600:03:1120200:40:1534800:02:5020700:25:18 01:25:14 
16872429Bob BenoitCharlottesville VA16000:16:1527600:03:2315900:38:5310100:01:3020900:25:21 01:25:21 
16944534Andrew JonesSterling VA24500:17:5714600:02:1311400:37:3223600:02:0523000:25:41 01:25:25 
17080630Darjush BoushehriAnnapolis MD24600:17:5712500:02:0324300:41:334900:01:1911400:22:43 01:25:33 
1713830Robert WhiteheadMechanicsville MD23500:17:3714900:02:1413200:38:0329000:02:2220800:25:19 01:25:33 
17244744Robert JonesLeesburg VA18200:16:3825200:03:0315200:38:4016400:01:4821900:25:30 01:25:38 
17324324Bryan PiacentiniManakin-Sabot VA5900:13:5810800:01:5729900:43:5213500:01:4117400:24:18 01:25:44 
1745923Ben WadeBlacksburg VA9000:14:4331000:03:4526800:42:4810400:01:3213100:23:00 01:25:47 
17540331Minas KourouglosRichmond VA10600:15:0716700:02:2124100:41:2725100:02:0919000:24:48 01:25:51 
17664146Lance CristBethesda MD28800:19:1628700:03:2814000:38:1920800:01:5912500:22:50 01:25:51 
17776437Dale AndersonArlington VA24000:17:4528200:03:2619500:40:0726700:02:1410700:22:29 01:25:59 
17817825Timothy SchaeferManassas VA14200:15:5617200:02:2527100:42:5014800:01:4414100:23:14 01:26:07 
1799328Will TateWashington DC6600:14:0422000:02:4829000:43:382300:01:1018200:24:35 01:26:13 
18048748Craig HickenMidlothian VA30400:20:1218000:02:3114400:38:2711900:01:3815000:23:27 01:26:13 
1815533John WalshWoodbridge VA16200:16:1919300:02:3617100:39:2536700:03:1019200:24:50 01:26:18 
18267036Neil ChidesterWashington DC29100:19:3912400:02:0217300:39:2625200:02:0913700:23:04 01:26:18 
18330349Sean MolloyRockville MD28600:19:1222100:02:486900:35:5432300:02:3823600:25:54 01:26:23 
18465940Brett CoffeeBurke VA28400:19:0718500:02:346100:35:3814400:01:4428400:27:27 01:26:28 
1857256Daniel TrimbachNew York NY16500:16:2111800:02:0014800:38:3527100:02:1628100:27:19 01:26:29 
PlaceBibAgNAMECITY/STATERankSWIMRankT1RankBIKERankT2RankRUNPENALTYTIMEDQ
18645238Mark JohnsonMcLean VA17800:16:347600:01:4319100:40:0020400:01:5825600:26:24 01:26:37 
18723532Barrett PowersAlexandria VA10200:15:0012100:02:0024000:41:2611000:01:3526600:26:43 01:26:43 
18870822Michael BowmanLexington VA10700:15:082600:01:2431700:44:4211300:01:3616300:23:57 01:26:45 
18928547Vinton MyersRichmond VA17200:16:2720700:02:4027400:42:5221800:02:0111800:22:47 01:26:46 
19031123David MillerWashington DC18300:16:4125400:03:0424200:41:3137700:03:199600:22:18 01:26:51 
19146650Joseph HutsonGainesville VA19700:16:5139600:05:4120900:40:2726100:02:127200:21:47 01:26:56 
19218035Hank SavedgeChesapeake VA20100:16:5631700:03:4922000:40:5221700:02:0014600:23:21 01:26:56 
19344438Adrian JonesWoodbridge VA23300:17:3312700:02:0419600:40:0831200:02:3019100:24:50 01:27:02 
1948147Guy TomberlinBluemont VA25600:18:1126800:03:1517000:39:224800:01:1819800:25:06 01:27:10 
19555245Stuart GittelmanSouth Riding VA29500:19:478300:01:4612000:37:4514600:01:4425400:26:15 01:27:14 
19610552Ted Sweetland JrMidlothian VA8400:14:3330300:03:3923700:41:2315600:01:4623900:25:57 01:27:15 
19741431Drew KlammerGlen Allen VA2700:12:5810700:01:5727000:42:5024600:02:0828800:27:31 01:27:22 
19842043Thomas KingCentreville VA9500:14:5223200:02:5521000:40:2922600:02:0228300:27:26 01:27:42 
1998648John ThomasNorfolk VA26900:18:4415400:02:1719800:40:1133500:02:4416000:23:52 01:27:46 
20048530Ben HightowerVirginia Beach VA14500:15:5817900:02:3128200:43:246900:01:2418000:24:32 01:27:47 
20180246Nicolas NouvelSpringfield VA15900:16:1429300:03:3221500:40:3929600:02:2419400:25:02 01:27:48 
20270655Ed BoyleSandy Hook VA3800:13:2714000:02:0921700:40:4915700:01:4634600:29:44 01:27:53 
20326319Benjamin OleskyMendham NJ7900:14:2612900:02:0424900:41:5015200:01:4530300:27:53 01:27:55 
20430026Javier MontenegroHyattsville MD31500:20:4129900:03:3619900:40:1225700:02:115900:21:21 01:27:59 
20541328Nick KleinschmidtArlington VA18800:16:4733500:04:0017400:39:2932900:02:4022000:25:31 01:28:26 
20645344Dieter JobeAlexandria VA24100:17:4833700:04:0215100:38:3729700:02:2422600:25:37 01:28:27 
20731431Alex MikitikColumbia MD4400:13:3534900:04:1226700:42:4529500:02:2422300:25:34 01:28:27 
20814721Andy SimmonsSterling VA4900:13:4425000:03:0222400:41:0335800:02:5929800:27:47 01:28:33 
20910134John TaberskiAlexandria VA31700:20:4527100:03:1716300:39:0814100:01:4215800:23:46 01:28:36 
21070922Timothy BowmanBaltimore MD26400:18:2923700:03:0018100:39:4727700:02:1919500:25:03 01:28:36 
21157037Dan FowlerArlington VA26300:18:2936400:04:2825200:41:5512500:01:408800:22:06 01:28:37 
21234238Steven MaynardGainesville VA10800:15:0918700:02:3425400:42:1331500:02:3125300:26:14 01:28:38 
2134231Mike WhichardChester VA           01:28:39 
21465361David ConoverGreat Falls VA13400:15:4710400:01:5520800:40:2312000:01:3833500:29:10 01:28:52 
21512730Jason StarckArlington VA19500:16:4914500:02:1220300:40:1626300:02:1329100:27:33 01:29:02 
21654145Ashton GouldinGreat Falls VA14900:16:0415600:02:1822800:41:1021900:02:0128900:27:32 01:29:03 
PlaceBibAgNAMECITY/STATERankSWIMRankT1RankBIKERankT2RankRUNPENALTYTIMEDQ
2177943David TomblinAlexandria VA23100:17:3119400:02:3610100:37:0917800:01:5035100:30:02 01:29:06 
21875358Gene BachmanVirginia Beach VA22800:17:2723500:02:5924700:41:4320700:01:5819700:25:04 01:29:10 
21921936Michael ReadBurke VA22200:17:1935000:04:1426500:42:4225900:02:1112400:22:50 01:29:14 
2203353Michael WillettReston VA5800:13:5721800:02:4726400:42:4124000:02:0630100:27:48 01:29:17 
22138126Todd LawlessLeesburg VA15300:16:0720000:02:3822100:40:5425600:02:1129000:27:33 01:29:22 
22213240David SousaFairfax VA26800:18:4433600:04:0123000:41:1332500:02:3813300:23:00 01:29:34 
2232638Russell WodiskaFalls Church VA25000:18:0522400:02:5022900:41:1013700:01:4123700:25:54 01:29:38 
22459637Shannon EmeryRockville MD34000:21:4930600:03:4213100:38:0234300:02:4815100:23:29 01:29:48 
22537441Matthew LegerArlington VA22300:17:1932800:03:5725100:41:5119700:01:5419300:24:55 01:29:54 
22616725Chris SchumakerHerndon VA15800:16:1434600:04:119700:37:0429800:02:2435400:30:05 01:29:56 
22776230Christopher AndersonArlington VA29600:19:4734500:04:1118400:39:5138100:03:2411700:22:46 01:29:57 
22854844David GogolkiewiczManassas VA13600:15:5130900:03:4523100:41:1532100:02:3626500:26:42 01:30:07 
22967436Jim CescaWest Chester PA7300:14:1827900:03:2428900:43:3526000:02:1226700:26:45 01:30:12 
23056228Michael FryFalls Church VA6000:13:5921100:02:4322700:41:0731000:02:3034900:29:56 01:30:14 
23173146Andrew BaxterCharlottesville VA7500:14:2014200:02:1034400:46:0217900:01:5024800:26:07 01:30:28 
23230538Kenneth MitchellFredericksburg VA20700:17:0213400:02:0527900:43:1819000:01:5325200:26:13 01:30:28 
23342717Austin KendallOak Hill VA19600:16:5129000:03:2930800:44:2032400:02:3814500:23:20 01:30:36 
23421724Andrew ReedyLeesburg VA1700:12:2922600:02:5234300:45:5721000:01:5929200:27:33 01:30:48 
23542323Jonny KiblerRuckersville VA2900:13:1024700:03:0036500:47:0728100:02:2021200:25:24 01:30:58 
2367445Michael TranquillRockville MD31900:20:4927000:03:1716600:39:1314500:01:4424100:25:59 01:31:00 
23745735Jason JaworskiFredericksburg VA37700:24:3115700:02:189200:36:5433800:02:4618100:24:33 01:31:02 
23869625Jeremy BrowningAnnapolis MD22600:17:2438500:05:0622600:41:0535600:02:5817900:24:31 01:31:02 
23916831Paul SchockettArlington VA18600:16:4328100:03:2428100:43:1924100:02:0722900:25:39 01:31:11 
24040943Dustin KnuttgenBedford VA27400:18:5024600:03:0021400:40:3818400:01:5227600:27:03 01:31:21 
24163150Damian DanowskiReston VA21600:17:0727800:03:2414300:38:2736500:03:0234100:29:33 01:31:30 
24235640Stephen LyonsGlen Allen VA26000:18:2012300:02:0222500:41:0424900:02:0930800:28:02 01:31:34 
24377841Justin AbramoNewport News VA35200:22:2119900:02:3813900:38:1729400:02:2424000:25:57 01:31:36 
24431527Bobby MidgleyWilmington DE20500:17:0031400:03:4732000:44:458700:01:2818900:24:46 01:31:44Y
24558432Kevin FederWashington DC2000:12:358500:01:4734100:45:5131700:02:3433200:29:03 01:31:49 
24639529Ryan KunkelWashington DC31800:20:4534700:04:1118700:39:557300:01:2522500:25:35 01:31:50 
24766734Randy ChristmanBaltimore MD27800:18:5538000:04:5918800:39:5535000:02:5314200:23:1600:02:0001:31:55 
PlaceBibAgNAMECITY/STATERankSWIMRankT1RankBIKERankT2RankRUNPENALTYTIMEDQ
2487335Steven TresslerLorton VA16700:16:2322200:02:4823500:41:2216900:01:4934300:29:35 01:31:55 
24917333Scott SchermerhornLeesburg VA10100:14:5823400:02:5726600:42:435200:01:1935200:30:02 01:31:57 
25054634Chris GoodRuther Glen VA22000:17:1126200:03:0931300:44:3330000:02:2518700:24:45 01:32:01 
25117932Nicholas SayersRockville, MD MD28900:19:2426500:03:1125700:42:146400:01:2323800:25:54 01:32:04 
25231752John MernaVirginia Beach VA22400:17:2021700:02:4629700:43:5025800:02:1124500:26:05 01:32:10 
25320335Will RobinsonRichmond VA13500:15:5033100:04:0031400:44:3430700:02:2922400:25:34 01:32:25 
25455467David GearinArlington VA27100:18:4833400:04:0018600:39:5237000:03:1326100:26:33 01:32:25 
25558840Omid FattahiWashington DC23200:17:3225300:03:0327800:43:1731600:02:3324900:26:08 01:32:31 
25614144Drew SmithOak Hill VA36900:23:4929700:03:3618200:39:5018100:01:5115200:23:30 01:32:33 
25776731Daniel AlvarezWashington DC34100:21:5120400:02:3915300:38:4130900:02:3027200:26:57 01:32:36 
2589836Arash TaleghaniRockville MD19400:16:4833300:04:0031900:44:4411500:01:3722100:25:32 01:32:39 
25967226Chris CheokNorth Beach MD25300:18:1029600:03:3527700:43:0433100:02:4120400:25:15 01:32:43 
26019348Graham RoseMidlothian VA28700:19:1417700:02:3024600:41:4216200:01:4829300:27:34 01:32:46 
26144343James JoppichHerndon VA28100:18:5825900:03:0621200:40:3432600:02:3929400:27:35 01:32:50 
2622726Daniel WittWashington DC33200:21:2428000:03:2418300:39:5016700:01:4925900:26:31 01:32:57 
26359350David EvansFairfax VA21100:17:0519700:02:3724400:41:3923200:02:0434700:29:44 01:33:07 
26444131Jonathan JumpVirginia Beach VA35700:22:5032700:03:5713500:38:0717200:01:4925800:26:30 01:33:10 
2658529Cord ThomasArlington VA23700:17:4118600:02:3428600:43:3318800:01:5329700:27:44 01:33:23 
26651934James HammerGloucester VA30700:20:219900:01:5416900:39:2216800:01:4935500:30:05 01:33:29 
26746337Scott JacksonClarksburg MD8600:14:3632400:03:5432900:45:1826800:02:1428700:27:30 01:33:30 
26860930Bobby DrakeGlen Allen VA29900:20:0311600:02:0029500:43:4712400:01:4025000:26:11 01:33:39 
26951538Jeremy HansonAlexandria VA36500:23:3535400:04:1816200:39:0533300:02:4416700:24:06 01:33:46 
27036538Ross LobleinHughesville MD20400:16:5922800:02:5330300:43:5926500:02:1329900:27:47 01:33:50 
27141160Mark KlineArlington VA33500:21:3511900:02:0024500:41:4020200:01:5726200:26:38 01:33:50 
27237152Thomas LettisVirginia Beach VA25200:18:0735900:04:2319000:40:0040700:04:2927000:26:54 01:33:51 
27312820Bobby StanleyBerryville VA35900:23:1130700:03:4434900:46:26600:01:012700:19:41 01:34:02 
27453430Joshua GreenChester VA25400:18:1112000:02:0036900:47:104500:01:1721600:25:29 01:34:06 
27520930Jonathan RileyFredericksburg VA26500:18:2915100:02:1627200:42:5134000:02:4730400:27:53 01:34:14 
27668146Michael CanningGlen Allen VA20600:17:0133800:04:0236700:47:0917000:01:4917300:24:18 01:34:16 
27757241Daniel FlorezNewport News VA38700:25:108700:01:4917200:39:2622400:02:0224200:26:00 01:34:24 
27855340Paul GearonSpotsylvania VA21900:17:0911100:01:5826000:42:3336900:03:1134500:29:43 01:34:31 
PlaceBibAgNAMECITY/STATERankSWIMRankT1RankBIKERankT2RankRUNPENALTYTIMEDQ
27925031Adam PeroneGlen Allen VA26700:18:427800:01:4517700:39:3528700:02:2237500:32:14 01:34:36 
28047445Jean-Francois HuardOak Hill VA13100:15:4337800:04:5628800:43:3530200:02:2631300:28:09 01:34:46 
28135746James E Lutz LutzAshburn VA36600:23:3622900:02:5318000:39:4421500:02:0026400:26:41 01:34:52 
28266437Barry ClarkFredericksburg VA24200:17:4935700:04:1818500:39:5233600:02:4535800:30:22 01:35:06 
28366034Esteban ClimentPrinceton NJ37100:23:5439100:05:1820600:40:1930800:02:3014000:23:13 01:35:11 
28468545John CaldwellFairfax VA27700:18:5420600:02:4035700:46:4218300:01:5120200:25:13 01:35:18 
28543448Stephen KellyWashington DC26100:18:2429500:03:3228000:43:1823100:02:0331100:28:06 01:35:22 
28617722Thomas SchaeferFairax VA32700:21:0622700:02:5232200:44:473800:01:1621300:25:25 01:35:24 
28744846Wes JohnstonPotomac MD33000:21:2326900:03:1719400:40:0637100:03:1428500:27:29 01:35:28 
28811748Scott StrongSterling VA19000:16:4737700:04:5233800:45:3932000:02:3622700:25:38 01:35:31 
28919052Mark RussellFaiarfax VA31600:20:4332100:03:5328500:43:3124300:02:0821800:25:30 01:35:43 
29010636Michael SweeneyVirginia Beach VA6500:14:0426400:03:1039600:51:2424700:02:0919600:25:03 01:35:48 
29164946Ben CoonAshburn VA15600:16:1024100:03:0030400:44:0135900:02:5934400:29:39 01:35:48Y
29240229Michael KovachFairfax VA35800:22:5124500:03:0032300:44:5327800:02:1912700:22:54 01:35:55 
29319542Randy RosePotomac Falls VA20300:16:5732000:03:5232600:45:1128200:02:2030200:27:49 01:36:08 
29452445Glenn HagmannArlington VA38600:25:0230000:03:3727500:42:5729200:02:239300:22:12 01:36:09 
29555928Cody GabbardArlington VA24800:18:0237000:04:3929200:43:4035300:02:5527100:26:56 01:36:10 
29616557Jay SchwartzManakin Sabot VA31200:20:3140100:06:1226300:42:3531400:02:3017600:24:24 01:36:11 
29718934Brent RussellVirginia Beach VA38800:25:1231500:03:4723800:41:2428900:02:2215600:23:39 01:36:23 
29825232John PelleritoCentreville VA34700:22:0810200:01:5529400:43:4421200:02:0026900:26:46 01:36:30 
2991125Paul YatesAlexandria VA29000:19:3424000:03:0032100:44:4731100:02:3026800:26:46 01:36:35 
30012533Ryan StaszakEllicott City MD5300:13:4928300:03:2738200:48:536300:01:2333700:29:15 01:36:45 
30128328Nathan NecaiseColumbia MD38200:24:4519500:02:3721300:40:3636800:03:1024400:26:05 01:37:12 
3027514Michael Paolo TranquillRockville MD18000:16:3722300:02:4838600:49:44800:01:0427500:27:02 01:37:13 
3033254Thomas WilliamsCentreville VA6400:14:0223000:02:5430600:44:027000:01:2539900:34:52 01:37:13 
30456759Timothy FreezeWaynesboro VA30800:20:2335200:04:1633700:45:3734900:02:529500:22:1600:02:0001:37:23 
30543831Derek KasseAshburn VA20900:17:0328400:03:2734000:45:4436600:03:0331200:28:08 01:37:24 
30625437Mark ParthSpringfield VA31000:20:2820800:02:4126200:42:3527900:02:1933900:29:25 01:37:26 
30726429Gregory O'KeeffeWashington DC           01:37:52 
30853036Tim GretenArlington VA8000:14:2717000:02:2433400:45:2823300:02:0439000:33:36 01:37:56 
3092244Robert WoodsStafford VA39000:25:2414400:02:1225900:42:2837800:03:1918600:24:42 01:38:03 
PlaceBibAgNAMECITY/STATERankSWIMRankT1RankBIKERankT2RankRUNPENALTYTIMEDQ
31063727Paul CrowleyFt. Lee VA33700:21:4331300:03:4629100:43:3920000:01:5628000:27:13 01:38:16 
31146740Hunter HutchensHerndon VA36200:23:2319100:02:3525000:41:5118600:01:5232500:28:37 01:38:17 
31260539Jason DwyerBristow VA23400:17:3636300:04:2634600:46:0435500:02:5628600:27:29 01:38:29 
31321832Robert RedfernArlington VA33100:21:2326300:03:0931600:44:3933000:02:4127700:27:07 01:38:57 
31425952John OroschSpringfield VA37400:24:1231600:03:4822300:40:5829100:02:2331500:28:11 01:39:29 
3156033William VonohlenVirginia Beach VA5400:13:5027300:03:2037500:48:0913800:01:4137900:32:30 01:39:29 
3161635Robert WorleyAlexandria VA           01:39:34Y
31742535Ibrahim KhalilArlington VA33300:21:3324400:03:0028400:43:2934400:02:4832800:28:48 01:39:38Y
31816146Craig SelwitzLeesburg VA27200:18:4832900:03:5932400:44:5639600:03:4731900:28:18 01:39:46 
31910037Chris TaberskiRochester NY38400:24:5524200:03:0023200:41:1735400:02:5529600:27:41 01:39:46 
32021022Robert RikerTakoma Park MD33600:21:4222500:02:5038100:48:524100:01:1620600:25:17 01:39:55 
32120034Samuel RobisonAlexandria VA35000:22:1840400:06:2223900:41:2520900:01:5931000:28:05 01:40:07 
32220452Jeffrey RobinsRockville MD38500:25:0138400:05:0419200:40:0036200:03:0127800:27:07 01:40:11 
3236529John VardyCrofton MD32500:21:0018800:02:3535900:46:4918000:01:5030600:28:01 01:40:13 
3243425Joshua WilkinsPhiladelphia PA35600:22:4833200:04:0036000:46:5021300:02:0018300:24:37 01:40:14 
32560330Billy DyeSE Washington DC19800:16:5141500:12:5726900:42:4927300:02:1722200:25:33 01:40:25 
32636637Jimmy LoHyattsville MD38100:24:3731100:03:4628300:43:2538700:03:3621000:25:22 01:40:43 
32774046Dario BarattoArlington VA37200:23:5927500:03:2229300:43:4315900:01:4730900:28:04 01:40:53 
3281551Edwin WrightMontclair VA30300:20:1127200:03:1835800:46:4532700:02:4031600:28:11 01:41:03 
32937041Neal LewisMechanicsville VA24400:17:5340800:06:5933000:45:1940000:04:0627300:27:00 01:41:14 
33071227Taylor BowditchArlington VA30200:20:0919200:02:3635400:46:3619300:01:5435300:30:05 01:41:17 
33127516Quinn NystromVienna VA27500:18:5120200:02:3930900:44:269000:01:2839500:34:26 01:41:48 
33212225Taylor SteinRichmond VA35400:22:3826100:03:0833100:45:2227200:02:1732100:28:29 01:41:52 
33320125Michael RobinsonFairfax VA32900:21:2034100:04:0525300:42:0634600:02:5034200:29:3500:02:0001:41:53 
33411841Randy StilesPasadena MD40000:27:1430500:03:4217900:39:4125400:02:1033300:29:08 01:41:54 
33575541Brian ArnoldPasadena MD37600:24:2323800:03:0030000:43:5528800:02:2232600:28:38 01:42:16 
33650728Ryan HatfieldYorktown VA25800:18:1721500:02:4533300:45:2636000:03:0138200:32:52 01:42:19 
33728933Peer MummeArlington VA30500:20:1837300:04:4036200:47:0029300:02:2330700:28:02 01:42:22 
33824047Thomas PorterBumpass VA22500:17:2133900:04:0435200:46:3117300:01:4938100:32:51 01:42:34 
33921525Michael ReyRichmond VA35100:22:1826700:03:1537400:48:0617700:01:5027900:27:10 01:42:36 
34026135Mark O'NeillSpringfield VA34500:21:5839300:05:2033500:45:3040600:04:2821700:25:29 01:42:44 
PlaceBibAgNAMECITY/STATERankSWIMRankT1RankBIKERankT2RankRUNPENALTYTIMEDQ
34128438Michael NearyGainesville VA32100:20:5325100:03:0230700:44:0338300:03:2836900:31:25 01:42:48 
34223634Joe PowersPowhatan VA39100:25:2624300:03:0029800:43:5228000:02:1932000:28:20 01:42:56 
34366829Alex ChristianArlington VA30000:20:0438300:05:0235300:46:3431300:02:3033100:29:01 01:43:10 
34412928Michael StanbridgeLeesburg VA20200:16:5734200:04:0732800:45:1410800:01:3340100:35:35 01:43:23 
34555638Steven GarrettFredericksburg VA32300:20:5835500:04:1831500:44:3840800:04:3732900:28:55 01:43:23 
34650324Antwone HawkinsSuitland MD39800:26:3916600:02:2135000:46:2826900:02:1423400:25:47 01:43:28 
34724162John PierceQuantico VA38300:24:4940200:06:1725500:42:1322900:02:0331400:28:10 01:43:30 
34851432Sam HardmanFairfax VA31300:20:3432200:03:5428700:43:3337300:03:1537600:32:18 01:43:33 
3493657John WhittlesLaurel MD23800:17:4223900:03:0038400:49:3326200:02:1233600:29:1300:02:0001:43:38 
35063037Randy DashMechanicsville VA5100:13:4425500:03:0438800:50:1731800:02:3539400:34:02 01:43:41 
35113653Eric SodeeRockville MD34800:22:1637600:04:5027300:42:5234200:02:4836200:30:58 01:43:41 
3525651Arthur WalkerChesapeake VA36000:23:1936500:04:2932700:45:1337500:03:1728200:27:26 01:43:42 
35314945Bob SickelsWheaton MD23900:17:4535600:04:1836800:47:0924400:02:0838000:32:47 01:44:06 
35422329Jason RagolioPasadena MD34200:21:5421200:02:4434800:46:1420100:01:5736700:31:24 01:44:11 
35558229Steve FennellWoodbridge VA32200:20:587900:01:4537800:48:2629900:02:2536100:30:44 01:44:15 
35641666Brad KirleyOrange VA32000:20:5130200:03:3934700:46:1133900:02:4736300:30:59 01:44:24 
35717135Rob SchmidtMcGaheysville VA39900:27:0431900:03:5134500:46:0323700:02:0521400:25:25 01:44:27 
35811931James StewartFalls Church VA28200:19:0118900:02:3533600:45:3338900:03:3739200:33:48 01:44:32 
35940830Tom KondilasCleveland OH36100:23:2228600:03:2837900:48:3714200:01:4329500:27:41 01:44:48 
36023737Chris PowellLeesburg VA27900:18:5635100:04:1438500:49:4233200:02:4333800:29:16 01:44:49 
36115837Jason SfaelosSouth Riding VA32800:21:1425600:03:0535600:46:4130500:02:2737000:31:27 01:44:52 
36232460Bill McManusStafford VA39300:25:4134300:04:0821100:40:3138400:03:3136500:31:03 01:44:53 
36350045Mark HayesAlexandria VA34900:22:1840000:06:1036400:47:0539400:03:4523300:25:46 01:45:01 
36432231Scott McQuadeMcLean VA26600:18:3635300:04:1638700:49:4836300:03:0234000:29:28 01:45:08 
36547126Matthew HulseRichmond VA29200:19:4036800:04:3239500:51:1938800:03:3624700:26:07 01:45:12 
36648032Dennis HoldenChesapeake VA9800:14:5439500:05:3130200:43:5840200:04:1640400:37:08 01:45:44 
36734651Bobby MasonRichmond VA34400:21:5618100:02:3331800:44:4437600:03:1838800:33:28 01:45:57 
36843636Kevin KelhartWashington DC15200:16:0736000:04:2337700:48:2137400:03:1639300:33:58 01:46:04 
3695351Jacob WamsleyNorfolk VA37300:24:1038900:05:1131000:44:2630300:02:2634800:29:53 01:46:04 
37046035Michael JakubikFredericksburg VA25700:18:1217800:02:3138000:48:3828300:02:2039600:34:29 01:46:08 
37142127Tim KilleenArlington VA17000:16:2523300:02:5539200:51:1238000:03:2338300:32:54 01:46:48 
PlaceBibAgNAMECITY/STATERankSWIMRankT1RankBIKERankT2RankRUNPENALTYTIMEDQ
37249120Josh HertzlerHarrisonburg VA35500:22:4837400:04:4237100:47:1528400:02:2135000:30:00 01:47:03 
37332738Chris McIntoshRichmond VA33800:21:4337900:04:5838300:48:5739500:03:4530000:27:48 01:47:08 
37437246Evan LeseAlexandria VA31400:20:3628800:03:2830100:43:5639700:03:4740200:35:42 01:47:27 
3754734David WechslerBethesda MD32400:20:5932500:03:5636300:47:0039000:03:3837200:32:00 01:47:31 
37623250Lowell PrattOak Hill VA34600:21:5839000:05:1533900:45:4030100:02:2538400:32:59 01:48:16 
37749642Christopher HembreeFairfax VA37800:24:3227700:03:2438900:50:408300:01:2732400:28:36 01:48:37 
37813532Joshua SoirezParkton MD37500:24:2236900:04:3937000:47:1239900:04:0133000:29:01 01:49:12 
37944233Gary JouvelakasRockville MD30900:20:2736700:04:3235500:46:3735100:02:5339800:34:47 01:49:13 
38062137Chris DernetzTowson MD38900:25:1439700:05:4931200:44:3027500:02:1836800:31:24 01:49:13 
3812340David WoodruffAlexandria VA36300:23:3516100:02:2025600:42:1428500:02:2140300:36:5000:02:0001:49:17 
38238346Brett LarrabeeAshburn VA39600:26:0537500:04:4933200:45:2532800:02:4036000:30:37 01:49:34 
38358651Rick FayyadRockville MD30100:20:0728500:03:2830500:44:0141000:04:5040600:37:23 01:49:48 
38461744Scott DixonBumpass VA41100:34:0432300:03:5426100:42:333700:01:1533400:29:09 01:50:52 
38571641Robert BlessingFairfax VA36700:23:4234800:04:1240000:51:5633700:02:4632200:28:29 01:51:03 
3861241Ali YasrebiSterling VA35300:22:2936600:04:3137600:48:1034500:02:4938600:33:16 01:51:12 
38740655Michael KortanReston VA40400:28:1929800:03:3639400:51:1615000:01:4526000:26:32 01:51:26 
38880749John O'BrienFt Belvoir VA40500:28:4530800:03:4436100:46:5839300:03:4432300:28:30 01:51:41 
38916342George ScottRuther Glen VA32600:21:0236200:04:2639900:51:4814900:01:4538500:33:01 01:52:01 
3906251Peter ViglianoMontclair VA39700:26:3530400:03:4139700:51:3733400:02:4431800:28:17 01:52:51 
39147065Michael HuntFairfax VA37900:24:3739200:05:1927600:43:0035700:02:5840800:37:29 01:53:21 
39251243Richard HardyWashington DC40600:29:1839800:06:0331100:44:2938200:03:2635900:30:23 01:53:36 
39320756Kerry RinesVienna VA30600:20:1840700:06:5939000:50:5240500:04:2536600:31:23 01:53:54 
39477530Aaron AdaljaWashington DC41000:32:2034000:04:0437300:47:5315500:01:4630500:27:57 01:53:57 
39534744Burton MasonStafford VA39500:25:4932600:03:5637200:47:2438600:03:3639100:33:41 01:54:24 
39668055William CarlinFredericksburg VA40100:27:3637100:04:4034200:45:5535200:02:5438900:33:28 01:54:32 
39763541Raymond CruzSpringfield VA40800:30:2834400:04:1036600:47:0736400:03:0235700:30:11 01:54:55 
39849548John HerbertAlexandria VA28300:19:0341400:09:2539300:51:1540100:04:1336400:31:03 01:54:58 
39940154Howard KraBethesda MD38000:24:3737200:04:4039800:51:4337900:03:2237300:32:03 01:56:22 
40031243Jack MillerHenrico VA40900:31:1531800:03:5035100:46:3037200:03:1437800:32:20 01:57:08 
40112051Mk StewartRichmond VA37000:23:4941000:07:3840300:52:4338500:03:3235600:30:07 01:57:47 
40256541Scott FrenchTowson MD27300:18:4931200:03:4640200:52:4023400:02:0440900:40:31 01:57:49 
PlaceBibAgNAMECITY/STATERankSWIMRankT1RankBIKERankT2RankRUNPENALTYTIMEDQ
40345958Steven JamarColumbia MD33400:21:3538100:05:0039100:51:1136100:03:0140700:37:25 01:58:10 
40480836Karl PicadoFalls Church VA41500:37:3640500:06:4632500:44:5939200:03:4420100:25:11 01:58:13 
40549855Michael HeardCharlottesville VA31100:20:2939900:06:0840800:56:0439100:03:4237100:31:54 01:58:15 
40626538Chris OgnekFredricksburg VA39400:25:4338200:05:0140500:53:5623800:02:0637400:32:10 01:58:55 
40721227Brad RichardsRichmond VA33900:21:4829200:03:3241100:57:2322100:02:0140500:37:10 02:01:52 
4088053Gary TomberlinSuffolk VA39200:25:3838800:05:1040700:54:529400:01:2939700:34:46 02:01:54 
40973434David BassettArlington VA40300:28:0840300:06:1941200:57:3040400:04:2332700:28:48 02:05:07 
41038250Glenn LawArlington VA40200:27:4738700:05:0940900:56:3034700:02:5038700:33:18 02:05:32 
41133654Grover McCallAlexandria VA36800:23:4438600:05:0640100:52:0739800:03:5141000:40:54 02:05:41 
41229744Kenneth MoorePotomac MD36400:23:3540900:07:2241000:56:4640900:04:4040000:35:08 02:07:29 
41370738Marcus BowmanFalls Church VA40700:30:1240600:06:5841501:03:4740300:04:1831700:28:11 02:13:24 
4148355Tim ToepkeLorton VA41400:34:3739400:05:2640400:53:0527000:02:1641100:42:27 02:17:48 
41538965Walter LaneAlexandria VA34300:21:5541300:08:4640600:54:4241100:05:0041300:50:23 02:20:45 
41614822Bilal SiddiqiGermantown MD41200:34:0941200:08:3441401:01:3741200:05:1037700:32:19 02:21:49 
41776362Clyde AndersonWashington DC41600:48:3841100:07:4941300:59:1541300:05:1141200:48:28 02:49:20 
41812614Robbie StarlingMoseley VA3300:13:164600:01:3017500:39:32700:01:03 DNF DNF 
41960214Stone DysonRichmond VA2800:13:094300:01:3012100:37:49     DNF 
42055553Bill GaryAshland VA20800:17:0326000:03:0623600:41:23     DNF 
42120653Jose RiveraDale City VA41300:34:21         DNFY

** Results are for the private use of participants and are the Intellectual Property of Set Up Events. Unauthorized use of these results is prohibited.